Time;durP1;ratioP1;P1;durP2;ratioP2;P2;SDS_P1;SDS_P2;PMS_P1;PMS_P2;Temp;Humidity;BMP_temperature;BMP_pressure;BME280_temperature;BME280_humidity;BME280_pressure;Samples;Min_cycle;Max_cycle;Signal;HPM_P1;HPM_P2
2023/04/23 00:02:10;;;;;;;22.42;12.23;;;7.80;99.90;;;;;;5023885;28;20057;-34
2023/04/23 00:04:37;;;;;;;26.23;14.40;;;7.80;99.90;;;;;;5016091;28;20064;-34
2023/04/23 00:07:03;;;;;;;22.90;13.23;;;7.80;99.90;;;;;;5022309;28;20595;-34
2023/04/23 00:09:31;;;;;;;25.60;13.73;;;7.80;99.90;;;;;;5010656;28;20050;-34
2023/04/23 00:11:58;;;;;;;25.33;14.35;;;7.80;99.90;;;;;;5026419;28;20511;-34
2023/04/23 00:14:23;;;;;;;31.17;16.05;;;7.80;99.90;;;;;;5019789;28;20555;-34
2023/04/23 00:16:49;;;;;;;36.05;16.70;;;7.80;99.90;;;;;;5029185;28;20127;-34
2023/04/23 00:19:15;;;;;;;41.42;18.90;;;7.80;99.90;;;;;;5034330;28;20107;-34
2023/04/23 00:21:40;;;;;;;37.33;18.25;;;7.80;99.90;;;;;;5020340;28;20053;-34
2023/04/23 00:24:06;;;;;;;48.92;18.63;;;7.80;99.90;;;;;;5026817;28;20131;-35
2023/04/23 00:26:32;;;;;;;32.78;17.50;;;7.80;99.90;;;;;;5017175;28;20065;-34
2023/04/23 00:28:57;;;;;;;34.60;18.83;;;7.80;99.90;;;;;;5024300;28;20057;-34
2023/04/23 00:31:25;;;;;;;36.35;19.05;;;7.90;99.90;;;;;;5024285;28;20426;-34
2023/04/23 00:33:51;;;;;;;36.45;19.08;;;7.90;99.90;;;;;;5028214;28;20123;-34
2023/04/23 00:36:17;;;;;;;41.33;19.63;;;7.90;99.90;;;;;;5013348;28;20432;-34
2023/04/23 00:38:43;;;;;;;39.30;18.88;;;7.90;99.90;;;;;;5026056;28;20049;-34
2023/04/23 00:41:09;;;;;;;37.70;19.67;;;7.90;99.90;;;;;;5022650;28;20061;-34
2023/04/23 00:43:36;;;;;;;41.22;19.42;;;7.90;99.90;;;;;;5039059;28;20477;-34
2023/04/23 00:46:02;;;;;;;43.30;20.90;;;7.90;99.90;;;;;;5025999;28;20041;-34
2023/04/23 00:48:28;;;;;;;42.15;20.58;;;7.90;99.90;;;;;;5041775;28;20521;-34
2023/04/23 00:51:06;;;;;;;42.03;20.38;;;7.90;99.90;;;;;;5029556;28;20045;-34
2023/04/23 00:53:32;;;;;;;44.15;21.05;;;7.90;99.90;;;;;;5041771;28;20096;-34
2023/04/23 00:56:00;;;;;;;38.47;19.98;;;7.90;99.90;;;;;;5035807;28;20054;-34
2023/04/23 00:58:27;;;;;;;41.65;20.35;;;7.90;99.90;;;;;;5012207;28;20131;-34
2023/04/23 01:00:52;;;;;;;42.50;21.95;;;7.90;99.90;;;;;;5032400;28;20052;-34
2023/04/23 01:03:20;;;;;;;43.40;21.58;;;7.90;99.90;;;;;;5037149;28;20052;-34
2023/04/23 01:05:48;;;;;;;45.03;22.15;;;7.90;99.90;;;;;;5042242;28;20063;-34
2023/04/23 01:08:15;;;;;;;50.20;22.88;;;7.90;99.90;;;;;;5033790;28;20064;-34
2023/04/23 01:10:43;;;;;;;50.55;23.73;;;7.90;99.90;;;;;;5033755;28;20111;-34
2023/04/23 01:13:08;;;;;;;48.80;24.23;;;7.90;99.90;;;;;;5031763;28;20057;-34
2023/04/23 01:15:34;;;;;;;54.08;24.80;;;7.90;99.90;;;;;;5025935;28;20560;-34
2023/04/23 01:18:00;;;;;;;48.15;22.75;;;7.80;99.90;;;;;;5030865;28;20056;-34
2023/04/23 01:20:26;;;;;;;53.10;26.92;;;7.80;99.90;;;;;;5024174;28;20046;-34
2023/04/23 01:22:52;;;;;;;48.53;24.08;;;7.80;99.90;;;;;;5018800;28;20098;-34
2023/04/23 01:25:18;;;;;;;46.15;23.63;;;7.80;99.90;;;;;;5031411;28;20056;-34
2023/04/23 01:27:44;;;;;;;46.08;23.33;;;7.80;99.90;;;;;;5023816;28;20065;-39
2023/04/23 01:30:10;;;;;;;47.85;23.35;;;7.80;99.90;;;;;;5020636;28;20049;-34
2023/04/23 01:32:36;;;;;;;47.17;24.90;;;7.80;99.90;;;;;;5025479;28;20057;-34
2023/04/23 01:35:03;;;;;;;47.28;24.95;;;7.80;99.90;;;;;;5030865;28;20051;-34
2023/04/23 01:37:30;;;;;;;52.13;24.50;;;7.80;99.90;;;;;;5055395;28;20643;-38
2023/04/23 01:39:56;;;;;;;48.63;24.30;;;7.80;99.90;;;;;;5020662;28;20095;-34
2023/04/23 01:42:22;;;;;;;53.58;25.80;;;7.80;99.90;;;;;;5043771;28;20475;-34
2023/04/23 01:44:48;;;;;;;48.28;24.35;;;7.80;99.90;;;;;;5038856;28;20073;-34
2023/04/23 01:47:14;;;;;;;46.28;24.63;;;7.80;99.90;;;;;;5028292;28;20084;-37
2023/04/23 01:49:40;;;;;;;49.10;23.90;;;7.80;99.90;;;;;;5018636;28;20046;-34
2023/04/23 01:52:05;;;;;;;47.45;24.73;;;7.80;99.90;;;;;;5012617;28;20385;-34
2023/04/23 01:54:31;;;;;;;52.95;24.95;;;7.70;99.90;;;;;;5020514;28;20054;-34
2023/04/23 01:56:57;;;;;;;47.88;25.08;;;7.80;99.90;;;;;;5023080;28;20057;-34
2023/04/23 01:59:23;;;;;;;52.03;25.13;;;7.70;99.90;;;;;;5027176;28;20057;-34
2023/04/23 02:01:49;;;;;;;59.63;28.67;;;7.70;99.90;;;;;;5035609;28;20040;-41
2023/04/23 02:04:16;;;;;;;52.60;24.98;;;7.80;99.90;;;;;;5040718;28;20132;-34
2023/04/23 02:06:44;;;;;;;55.10;25.98;;;7.70;99.90;;;;;;5022105;28;20045;-34
2023/04/23 02:09:10;;;;;;;53.45;25.70;;;7.70;99.90;;;;;;5008782;28;20057;-34
2023/04/23 02:11:36;;;;;;;52.65;25.95;;;7.70;99.90;;;;;;5032320;28;21642;-38
2023/04/23 02:14:03;;;;;;;52.17;26.15;;;7.70;99.90;;;;;;5025082;28;20057;-34
2023/04/23 02:16:29;;;;;;;58.50;26.15;;;7.60;99.90;;;;;;5017694;28;20057;-34
2023/04/23 02:18:55;;;;;;;52.47;27.38;;;7.60;99.90;;;;;;5043535;28;20111;-34
2023/04/23 02:21:23;;;;;;;54.13;26.85;;;7.60;99.90;;;;;;5027383;28;20491;-34
2023/04/23 02:23:49;;;;;;;52.90;26.25;;;7.60;99.90;;;;;;5031462;28;20490;-34
2023/04/23 02:26:15;;;;;;;58.78;26.73;;;7.60;99.90;;;;;;5034736;28;20140;-34
2023/04/23 02:28:41;;;;;;;47.90;24.73;;;7.60;99.90;;;;;;5031518;28;20136;-34
2023/04/23 02:31:07;;;;;;;54.35;26.17;;;7.60;99.90;;;;;;5031558;28;20049;-34
2023/04/23 02:33:32;;;;;;;48.70;23.83;;;7.60;99.90;;;;;;5030187;28;20450;-35
2023/04/23 02:35:58;;;;;;;55.90;25.65;;;7.50;99.90;;;;;;5014867;28;20153;-34
2023/04/23 02:38:24;;;;;;;51.83;25.23;;;7.50;99.90;;;;;;5019310;28;20091;-34
2023/04/23 02:40:49;;;;;;;56.67;26.13;;;7.50;99.90;;;;;;5021213;28;20148;-34
2023/04/23 02:43:16;;;;;;;54.83;26.77;;;7.50;99.90;;;;;;5025041;28;20049;-34
2023/04/23 02:45:43;;;;;;;59.90;26.45;;;7.50;99.90;;;;;;5016715;28;20056;-37
2023/04/23 02:48:09;;;;;;;55.38;26.65;;;7.50;99.90;;;;;;5028816;28;20141;-34
2023/04/23 02:50:40;;;;;;;57.63;27.80;;;7.50;99.90;;;;;;5023594;28;20478;-34
2023/04/23 02:53:06;;;;;;;58.92;25.73;;;7.50;99.90;;;;;;5023416;28;20050;-34
2023/04/23 02:55:32;;;;;;;61.22;27.75;;;7.60;99.90;;;;;;5016570;28;20049;-34
2023/04/23 02:57:58;;;;;;;59.97;27.95;;;7.60;99.90;;;;;;5018795;28;20493;-34
2023/04/23 03:00:25;;;;;;;59.88;28.65;;;7.60;99.90;;;;;;5028846;28;20049;-34
2023/04/23 03:02:51;;;;;;;53.15;25.92;;;7.60;99.90;;;;;;5024694;28;20049;-35
2023/04/23 03:05:17;;;;;;;61.63;26.75;;;7.60;99.90;;;;;;5026376;28;20080;-34
2023/04/23 03:07:42;;;;;;;60.03;27.77;;;7.60;99.90;;;;;;5025180;28;20060;-34
2023/04/23 03:10:08;;;;;;;55.72;25.20;;;7.60;99.90;;;;;;5024856;28;20124;-36
2023/04/23 03:12:34;;;;;;;56.38;26.15;;;7.60;99.90;;;;;;5025969;28;20042;-34
2023/04/23 03:15:00;;;;;;;64.43;27.25;;;7.60;99.90;;;;;;5010539;28;20090;-35
2023/04/23 03:17:25;;;;;;;57.08;25.50;;;7.60;99.90;;;;;;5022659;28;20097;-35
2023/04/23 03:19:51;;;;;;;70.07;26.83;;;7.60;99.90;;;;;;5028492;28;20389;-36
2023/04/23 03:22:17;;;;;;;67.72;26.00;;;7.60;99.90;;;;;;5022422;28;20048;-34
2023/04/23 03:24:43;;;;;;;51.15;23.02;;;7.60;99.90;;;;;;5031816;28;20140;-33
2023/04/23 03:27:08;;;;;;;62.08;24.60;;;7.60;99.90;;;;;;5012327;28;20061;-39
2023/04/23 03:29:34;;;;;;;76.30;25.75;;;7.50;99.90;;;;;;5030429;28;20395;-34
2023/04/23 03:32:00;;;;;;;83.97;23.77;;;7.60;99.90;;;;;;5030507;28;20057;-34
2023/04/23 03:34:26;;;;;;;67.65;25.20;;;7.50;99.90;;;;;;5029748;28;20436;-34
2023/04/23 03:36:51;;;;;;;47.72;22.38;;;7.50;99.90;;;;;;5026139;28;20510;-34
2023/04/23 03:39:17;;;;;;;55.97;24.58;;;7.50;99.90;;;;;;5019310;28;20446;-34
2023/04/23 03:41:43;;;;;;;44.22;20.02;;;7.50;99.90;;;;;;5011683;28;20136;-34
2023/04/23 03:44:08;;;;;;;54.40;24.92;;;7.60;99.90;;;;;;5014051;28;20139;-34
2023/04/23 03:46:34;;;;;;;52.58;23.00;;;7.60;99.90;;;;;;5010752;28;20054;-34
2023/04/23 03:49:00;;;;;;;51.33;22.73;;;7.60;99.90;;;;;;5020406;28;20519;-34
2023/04/23 03:51:26;;;;;;;61.30;25.05;;;7.60;99.90;;;;;;5021943;28;20049;-34
2023/04/23 03:53:51;;;;;;;50.03;24.25;;;7.60;99.90;;;;;;5023298;28;20048;-35
2023/04/23 03:56:17;;;;;;;54.35;24.23;;;7.60;99.90;;;;;;5031932;28;20053;-34
2023/04/23 03:58:43;;;;;;;57.17;25.58;;;7.60;99.90;;;;;;5034056;28;20172;-34
2023/04/23 04:01:08;;;;;;;50.80;23.17;;;7.60;99.90;;;;;;5031162;28;20053;-34
2023/04/23 04:03:35;;;;;;;55.75;26.13;;;7.60;99.90;;;;;;5029069;28;20045;-34
2023/04/23 04:06:01;;;;;;;59.22;26.65;;;7.60;99.90;;;;;;5012651;28;20049;-34
2023/04/23 04:08:28;;;;;;;54.33;24.50;;;7.60;99.90;;;;;;5023168;28;20147;-34
2023/04/23 04:10:54;;;;;;;52.33;24.50;;;7.60;99.90;;;;;;5018971;28;20048;-35
2023/04/23 04:13:20;;;;;;;49.85;24.17;;;7.60;99.90;;;;;;5030829;28;20381;-34
2023/04/23 04:15:46;;;;;;;54.75;24.67;;;7.70;99.90;;;;;;5032496;28;20061;-42
2023/04/23 04:18:12;;;;;;;55.97;25.73;;;7.70;99.90;;;;;;5026064;28;20072;-34
2023/04/23 04:20:37;;;;;;;58.97;25.98;;;7.80;99.90;;;;;;5027659;28;20049;-34
2023/04/23 04:23:03;;;;;;;57.17;26.83;;;7.80;99.90;;;;;;5025494;28;20053;-34
2023/04/23 04:25:29;;;;;;;61.17;28.45;;;7.80;99.90;;;;;;5018214;28;20566;-34
2023/04/23 04:27:56;;;;;;;51.80;24.80;;;7.80;99.90;;;;;;5014568;28;20073;-38
2023/04/23 04:30:23;;;;;;;63.63;28.10;;;7.90;99.90;;;;;;5028713;28;20041;-34
2023/04/23 04:32:49;;;;;;;62.35;27.48;;;7.90;99.90;;;;;;5018840;28;20095;-34
2023/04/23 04:35:15;;;;;;;61.60;27.27;;;7.90;99.90;;;;;;5031497;28;20102;-34
2023/04/23 04:37:42;;;;;;;63.38;29.40;;;8.00;99.90;;;;;;5035162;28;20136;-34
2023/04/23 04:40:10;;;;;;;58.40;26.40;;;8.00;99.90;;;;;;5014599;28;20049;-34
2023/04/23 04:42:36;;;;;;;56.65;26.63;;;8.00;99.90;;;;;;5013914;28;20057;-34
2023/04/23 04:45:03;;;;;;;54.80;24.92;;;8.00;99.90;;;;;;5015033;28;20061;-34
2023/04/23 04:47:29;;;;;;;56.17;26.42;;;8.10;99.90;;;;;;5017921;28;20491;-34
2023/04/23 04:49:56;;;;;;;55.92;26.75;;;8.10;99.90;;;;;;5044050;28;20056;-34
2023/04/23 04:52:23;;;;;;;58.17;26.13;;;8.10;99.90;;;;;;5034424;28;20045;-34
2023/04/23 04:54:49;;;;;;;53.88;24.92;;;8.10;99.90;;;;;;5022256;28;20045;-34
2023/04/23 04:57:14;;;;;;;57.80;26.20;;;8.10;99.90;;;;;;5032645;28;20072;-34
2023/04/23 04:59:40;;;;;;;56.80;26.52;;;8.10;99.90;;;;;;5032987;28;20053;-34
2023/04/23 05:02:06;;;;;;;50.15;23.80;;;8.10;99.90;;;;;;5020371;28;20080;-34
2023/04/23 05:04:32;;;;;;;58.08;27.35;;;8.10;99.90;;;;;;5016746;28;20175;-34
2023/04/23 05:06:57;;;;;;;61.65;26.15;;;8.10;99.90;;;;;;5024168;28;20143;-34
2023/04/23 05:09:24;;;;;;;58.25;26.60;;;8.10;99.90;;;;;;5025761;28;20526;-34
2023/04/23 05:11:50;;;;;;;50.03;24.10;;;8.20;99.90;;;;;;5019937;28;21506;-34
2023/04/23 05:14:16;;;;;;;55.30;25.30;;;8.20;99.90;;;;;;5030999;28;20106;-34
2023/04/23 05:16:41;;;;;;;55.22;25.38;;;8.20;99.90;;;;;;5026209;28;20049;-34
2023/04/23 05:19:07;;;;;;;55.45;25.90;;;8.20;99.90;;;;;;5016057;28;20503;-34
2023/04/23 05:21:33;;;;;;;49.72;22.75;;;8.20;99.90;;;;;;5019633;28;20069;-34
2023/04/23 05:23:58;;;;;;;55.13;23.77;;;8.30;99.90;;;;;;5031129;28;20132;-34
2023/04/23 05:26:24;;;;;;;55.88;26.77;;;8.40;99.90;;;;;;5033008;28;20085;-34
2023/04/23 05:28:50;;;;;;;47.70;23.70;;;8.40;99.90;;;;;;5032540;28;20079;-34
2023/04/23 05:31:16;;;;;;;52.60;25.20;;;8.40;99.90;;;;;;5035301;28;20053;-34
2023/04/23 05:33:43;;;;;;;48.92;22.75;;;8.50;99.90;;;;;;5029166;28;20465;-34
2023/04/23 05:36:09;;;;;;;54.50;24.70;;;8.50;99.90;;;;;;5022093;28;20504;-35
2023/04/23 05:38:35;;;;;;;50.92;24.08;;;8.60;99.90;;;;;;5036311;28;20099;-34
2023/04/23 05:41:01;;;;;;;46.15;22.48;;;8.60;99.90;;;;;;5024288;28;20049;-34
2023/04/23 05:43:26;;;;;;;46.83;22.77;;;8.60;99.90;;;;;;5030899;28;20553;-34
2023/04/23 05:45:52;;;;;;;42.08;21.35;;;8.60;99.90;;;;;;5030394;28;20053;-34
2023/04/23 05:48:18;;;;;;;42.50;21.92;;;8.60;99.90;;;;;;5018744;28;20561;-34
2023/04/23 05:50:43;;;;;;;43.85;21.75;;;8.60;99.90;;;;;;5017847;28;20049;-34
2023/04/23 05:53:09;;;;;;;41.22;20.17;;;8.60;99.90;;;;;;5032757;28;20077;-34
2023/04/23 05:55:35;;;;;;;40.10;20.55;;;8.70;99.90;;;;;;5017483;28;20049;-34
2023/04/23 05:58:01;;;;;;;42.00;19.55;;;8.70;99.90;;;;;;5020381;28;20045;-34
2023/04/23 06:00:27;;;;;;;42.72;20.23;;;8.80;99.90;;;;;;5029424;28;20069;-34
2023/04/23 06:02:52;;;;;;;37.95;18.63;;;8.90;99.90;;;;;;5015162;28;20041;-34
2023/04/23 06:05:18;;;;;;;41.03;20.38;;;8.90;99.90;;;;;;5025978;28;20053;-34
2023/04/23 06:07:44;;;;;;;39.88;19.67;;;8.90;99.90;;;;;;5024111;28;20392;-34
2023/04/23 06:10:10;;;;;;;40.50;20.33;;;9.00;99.90;;;;;;5017949;28;20492;-35
2023/04/23 06:12:38;;;;;;;38.40;19.73;;;9.10;99.90;;;;;;5017435;28;20125;-34
2023/04/23 06:15:05;;;;;;;37.38;18.27;;;9.10;99.90;;;;;;5029907;28;20060;-34
2023/04/23 06:17:31;;;;;;;35.78;18.52;;;9.20;99.90;;;;;;5018474;28;20056;-34
2023/04/23 06:19:57;;;;;;;41.08;19.25;;;9.30;99.90;;;;;;5037050;28;20053;-34
2023/04/23 06:22:22;;;;;;;32.50;16.98;;;9.40;99.90;;;;;;5036937;28;20156;-34
2023/04/23 06:24:48;;;;;;;35.08;19.17;;;9.40;99.90;;;;;;5026397;28;20057;-34
2023/04/23 06:27:14;;;;;;;35.35;18.73;;;9.50;99.90;;;;;;5025587;28;20057;-34
2023/04/23 06:29:39;;;;;;;37.10;20.10;;;9.50;99.90;;;;;;5030857;28;20056;-35
2023/04/23 06:32:05;;;;;;;34.03;18.30;;;9.50;99.90;;;;;;5028755;28;20116;-41
2023/04/23 06:34:31;;;;;;;38.63;18.88;;;9.60;99.90;;;;;;5037813;28;20172;-34
2023/04/23 06:36:57;;;;;;;40.58;20.08;;;9.60;99.90;;;;;;5017210;28;20046;-34
2023/04/23 06:39:23;;;;;;;41.58;20.00;;;9.60;99.90;;;;;;5011932;28;20054;-34
2023/04/23 06:41:48;;;;;;;38.67;19.63;;;9.70;99.90;;;;;;5016596;28;20393;-34
2023/04/23 06:44:14;;;;;;;34.88;18.70;;;9.70;99.90;;;;;;5020192;28;20060;-48
2023/04/23 06:46:40;;;;;;;37.63;19.95;;;9.80;99.90;;;;;;5030995;28;20503;-34
2023/04/23 06:49:06;;;;;;;37.72;18.08;;;9.80;99.90;;;;;;5020912;28;20072;-34
2023/04/23 06:51:31;;;;;;;39.13;18.95;;;9.90;99.90;;;;;;5033766;28;20506;-34
2023/04/23 06:54:00;;;;;;;37.30;17.63;;;9.90;99.90;;;;;;5034224;28;20117;-34
2023/04/23 06:56:26;;;;;;;39.67;19.85;;;9.90;99.90;;;;;;5029969;28;20058;-34
2023/04/23 06:58:52;;;;;;;38.05;19.08;;;10.00;99.90;;;;;;5010929;28;20135;-34
2023/04/23 07:01:18;;;;;;;34.97;17.35;;;10.00;99.90;;;;;;5010236;28;20156;-35
2023/04/23 07:03:47;;;;;;;35.20;17.90;;;10.10;99.90;;;;;;5024332;28;20102;-45
2023/04/23 07:06:16;;;;;;;35.13;18.08;;;10.10;99.90;;;;;;5032981;28;20140;-36
2023/04/23 07:08:43;;;;;;;34.10;16.70;;;10.10;99.90;;;;;;5030538;28;20056;-35
2023/04/23 07:11:09;;;;;;;33.00;16.73;;;10.10;99.90;;;;;;5034842;28;20479;-35
2023/04/23 07:13:35;;;;;;;34.75;18.55;;;10.10;99.90;;;;;;5023393;28;20045;-35
2023/04/23 07:16:01;;;;;;;35.20;19.33;;;10.10;99.90;;;;;;5018806;28;20049;-35
2023/04/23 07:18:26;;;;;;;35.58;18.00;;;10.20;99.90;;;;;;5035122;28;20053;-36
2023/04/23 07:20:52;;;;;;;32.17;18.38;;;10.30;99.90;;;;;;5034955;28;20058;-41
2023/04/23 07:23:18;;;;;;;35.75;18.63;;;10.30;99.90;;;;;;5031242;28;20143;-36
2023/04/23 07:25:43;;;;;;;33.17;17.38;;;10.40;99.90;;;;;;5024389;28;20048;-36
2023/04/23 07:28:09;;;;;;;32.65;17.40;;;10.50;99.90;;;;;;5018018;28;20451;-36
2023/04/23 07:30:35;;;;;;;32.70;18.13;;;10.50;99.90;;;;;;5017069;28;20484;-36
2023/04/23 07:33:01;;;;;;;31.00;16.83;;;10.60;99.90;;;;;;5011666;28;20053;-36
2023/04/23 07:35:26;;;;;;;30.80;17.05;;;10.60;99.90;;;;;;5013530;28;20041;-36
2023/04/23 07:37:54;;;;;;;32.88;17.13;;;10.70;99.90;;;;;;5021077;28;20053;-36
2023/04/23 07:40:24;;;;;;;28.50;16.40;;;10.80;99.90;;;;;;5027905;28;20053;-49
2023/04/23 07:42:50;;;;;;;26.73;14.70;;;10.90;99.90;;;;;;5020071;28;20053;-34
2023/04/23 07:45:16;;;;;;;32.78;17.15;;;11.00;99.90;;;;;;5026244;28;20568;-34
2023/04/23 07:47:42;;;;;;;29.30;15.88;;;11.10;99.90;;;;;;5031391;28;20056;-34
2023/04/23 07:50:08;;;;;;;29.67;16.27;;;11.20;99.90;;;;;;5028642;28;20419;-34
2023/04/23 07:52:34;;;;;;;29.67;15.88;;;11.30;99.90;;;;;;5031416;28;20041;-41
2023/04/23 07:55:00;;;;;;;28.02;15.57;;;11.40;99.90;;;;;;5022145;28;20041;-43
2023/04/23 07:57:26;;;;;;;24.23;14.45;;;11.50;99.90;;;;;;5028638;28;20069;-36
2023/04/23 07:59:52;;;;;;;25.90;15.77;;;11.60;99.90;;;;;;5026809;28;20727;-34
2023/04/23 08:02:22;;;;;;;25.58;14.70;;;11.70;99.90;;;;;;5025562;28;20048;-34
2023/04/23 08:04:48;;;;;;;25.35;14.45;;;11.80;99.90;;;;;;5014938;28;20201;-34
2023/04/23 08:07:13;;;;;;;25.02;13.27;;;11.90;99.90;;;;;;5007310;28;20693;-34
2023/04/23 08:09:39;;;;;;;25.13;14.57;;;12.00;99.90;;;;;;5009234;28;20062;-34
2023/04/23 08:12:05;;;;;;;22.27;12.50;;;12.00;99.90;;;;;;5019812;28;20077;-36
2023/04/23 08:14:30;;;;;;;24.42;12.82;;;12.20;99.90;;;;;;5023054;28;20499;-45
2023/04/23 08:16:56;;;;;;;20.38;12.68;;;12.20;99.90;;;;;;5011963;28;20041;-35
2023/04/23 08:19:21;;;;;;;21.38;12.15;;;12.30;99.90;;;;;;5028229;28;20060;-35
2023/04/23 08:21:48;;;;;;;20.55;11.75;;;12.40;99.90;;;;;;5014125;28;20053;-35
2023/04/23 08:24:13;;;;;;;20.05;10.88;;;12.50;99.90;;;;;;5018824;28;20067;-35
2023/04/23 08:26:39;;;;;;;20.40;10.93;;;12.60;99.90;;;;;;5028663;28;20143;-36
2023/04/23 08:29:05;;;;;;;19.23;10.88;;;12.70;99.90;;;;;;5026556;28;20057;-40
2023/04/23 08:31:31;;;;;;;18.02;10.10;;;12.80;99.90;;;;;;5014155;28;20055;-35
2023/04/23 08:33:57;;;;;;;20.38;10.55;;;13.00;99.90;;;;;;5031542;28;20081;-35
2023/04/23 08:36:23;;;;;;;17.95;9.68;;;13.10;99.90;;;;;;5035154;28;20069;-35
2023/04/23 08:38:49;;;;;;;16.02;9.07;;;13.20;99.90;;;;;;5028437;28;20128;-35
2023/04/23 08:41:17;;;;;;;18.40;9.65;;;13.20;99.90;;;;;;5020547;28;20068;-36
2023/04/23 08:43:50;;;;;;;17.40;9.07;;;13.30;99.90;;;;;;5038301;28;20522;-35
2023/04/23 08:46:18;;;;;;;16.27;9.18;;;13.50;99.90;;;;;;5030078;28;20545;-35
2023/04/23 08:48:46;;;;;;;15.18;8.73;;;13.60;99.90;;;;;;5022204;28;20527;-35
2023/04/23 08:51:18;;;;;;;14.82;8.40;;;13.70;99.90;;;;;;4990024;28;20136;-36
2023/04/23 08:53:51;;;;;;;15.73;8.48;;;13.90;99.90;;;;;;5039129;28;20068;-35
2023/04/23 08:56:17;;;;;;;15.32;8.35;;;14.00;99.90;;;;;;5020852;28;20050;-35
2023/04/23 08:58:44;;;;;;;14.73;8.15;;;14.10;99.90;;;;;;5027759;28;20057;-35
2023/04/23 09:01:10;;;;;;;11.63;7.18;;;14.20;99.90;;;;;;5035531;28;20143;-35
2023/04/23 09:03:36;;;;;;;12.27;7.22;;;14.40;99.90;;;;;;5022043;28;20053;-35
2023/04/23 09:06:03;;;;;;;13.50;7.00;;;14.50;99.90;;;;;;5036759;28;20048;-35
2023/04/23 09:08:31;;;;;;;10.43;6.28;;;14.60;99.90;;;;;;5035267;28;20049;-35
2023/04/23 09:11:00;;;;;;;9.75;5.25;;;14.70;99.90;;;;;;5026291;28;20049;-35
2023/04/23 09:13:26;;;;;;;14.63;8.02;;;14.60;99.90;;;;;;5009011;28;20081;-35
2023/04/23 09:15:51;;;;;;;14.13;7.45;;;14.70;99.90;;;;;;5015658;28;20555;-35
2023/04/23 09:18:19;;;;;;;11.27;7.07;;;14.70;99.90;;;;;;5022135;28;20410;-35
2023/04/23 09:20:45;;;;;;;13.40;7.40;;;14.80;99.90;;;;;;5018751;28;20057;-35
2023/04/23 09:23:14;;;;;;;14.25;7.90;;;14.90;99.90;;;;;;5029093;28;20103;-35
2023/04/23 09:25:40;;;;;;;14.65;7.20;;;15.10;99.90;;;;;;5035132;28;20053;-35
2023/04/23 09:28:12;;;;;;;11.30;6.68;;;15.20;99.90;;;;;;5022529;28;20092;-35
2023/04/23 09:30:47;;;;;;;11.30;7.28;;;15.30;99.90;;;;;;5043397;28;20111;-42
2023/04/23 09:33:16;;;;;;;10.23;6.97;;;15.50;99.90;;;;;;5015100;28;20507;-35
2023/04/23 09:35:42;;;;;;;10.90;6.95;;;15.80;99.90;;;;;;5027232;28;20495;-35
2023/04/23 09:38:09;;;;;;;10.57;6.25;;;15.90;99.90;;;;;;5019323;28;20058;-35
2023/04/23 09:40:36;;;;;;;12.32;6.45;;;16.00;99.90;;;;;;5030606;28;20060;-35
2023/04/23 09:43:03;;;;;;;9.80;6.15;;;16.00;99.90;;;;;;5026985;28;21868;-34
2023/04/23 09:45:29;;;;;;;12.00;5.80;;;16.10;99.90;;;;;;5026655;28;20060;-35
2023/04/23 09:47:57;;;;;;;10.05;5.10;;;16.20;99.90;;;;;;5024412;28;20088;-34
2023/04/23 09:50:34;;;;;;;9.40;6.10;;;16.30;99.90;;;;;;5016450;28;20585;-35
2023/04/23 09:53:00;;;;;;;11.45;7.25;;;16.40;99.90;;;;;;5019184;28;20061;-35
2023/04/23 09:55:28;;;;;;;10.70;6.50;;;16.40;99.90;;;;;;5035781;28;20041;-34
2023/04/23 09:57:54;;;;;;;10.18;5.45;;;16.30;99.90;;;;;;5031675;28;20084;-34
2023/04/23 10:00:21;;;;;;;9.07;6.03;;;16.40;99.90;;;;;;5021781;28;20108;-34
2023/04/23 10:02:51;;;;;;;8.90;5.47;;;16.50;99.90;;;;;;5019401;28;20514;-34
2023/04/23 10:05:18;;;;;;;8.98;4.78;;;16.60;99.90;;;;;;5022272;28;20057;-34
2023/04/23 10:07:48;;;;;;;7.70;4.60;;;16.60;99.90;;;;;;5029628;28;20050;-35
2023/04/23 10:10:18;;;;;;;9.00;4.50;;;16.60;99.90;;;;;;5033819;28;20107;-35
2023/04/23 10:12:45;;;;;;;9.05;3.70;;;16.50;99.90;;;;;;5032384;28;20079;-35
2023/04/23 10:15:12;;;;;;;14.70;3.85;;;16.40;99.90;;;;;;5029240;28;20053;-39
2023/04/23 10:17:39;;;;;;;6.38;3.03;;;16.40;99.90;;;;;;5031043;28;20045;-35
2023/04/23 10:20:07;;;;;;;5.78;3.10;;;16.50;99.90;;;;;;5033796;28;20140;-35
2023/04/23 10:22:34;;;;;;;8.35;3.20;;;16.40;99.90;;;;;;5031543;28;20064;-34
2023/04/23 10:25:07;;;;;;;8.27;3.45;;;16.40;99.90;;;;;;5033163;28;20073;-34
2023/04/23 10:27:43;;;;;;;7.50;3.38;;;16.30;99.90;;;;;;5033351;28;20076;-34
2023/04/23 10:30:10;;;;;;;5.78;3.10;;;16.50;99.90;;;;;;5030893;28;20091;-35
2023/04/23 10:32:40;;;;;;;5.70;2.38;;;16.70;99.90;;;;;;5032024;28;20052;-34
2023/04/23 10:35:07;;;;;;;7.15;2.83;;;17.10;99.90;;;;;;5031770;28;20430;-35
2023/04/23 10:37:34;;;;;;;8.10;3.28;;;17.30;99.90;;;;;;5033921;28;20065;-36
2023/04/23 10:40:12;;;;;;;5.10;2.50;;;17.40;99.90;;;;;;5035791;28;20064;-35
2023/04/23 10:42:48;;;;;;;5.93;3.20;;;17.40;99.90;;;;;;5031048;28;20072;-35
2023/04/23 10:45:16;;;;;;;8.85;2.85;;;17.30;99.90;;;;;;5031631;28;20519;-35
2023/04/23 10:47:45;;;;;;;5.72;2.65;;;17.20;99.90;;;;;;5032741;28;20556;-35
2023/04/23 10:50:25;;;;;;;7.13;3.40;;;17.40;99.90;;;;;;5029999;28;20487;-35
2023/04/23 10:52:56;;;;;;;5.68;3.22;;;17.40;99.90;;;;;;5033118;28;20052;-35
2023/04/23 10:55:26;;;;;;;7.55;2.90;;;17.30;99.90;;;;;;5029476;28;20184;-35
2023/04/23 10:58:04;;;;;;;6.97;3.88;;;17.20;99.90;;;;;;5030688;28;20061;-35
2023/04/23 11:00:51;;;;;;;8.52;3.53;;;17.00;99.90;;;;;;5031885;28;20049;-35
2023/04/23 11:03:37;;;;;;;4.93;2.50;;;16.90;99.90;;;;;;5029583;28;20045;-35
2023/04/23 11:06:04;;;;;;;8.38;3.00;;;16.80;99.90;;;;;;5028451;28;20517;-35
2023/04/23 11:08:31;;;;;;;5.93;2.65;;;16.90;99.90;;;;;;5028239;28;20099;-35
2023/04/23 11:10:59;;;;;;;5.78;2.10;;;16.90;99.90;;;;;;5027545;28;20076;-35
2023/04/23 11:13:26;;;;;;;6.72;2.45;;;17.00;99.90;;;;;;5031218;28;20057;-35
2023/04/23 11:16:20;;;;;;;6.60;2.20;;;16.90;99.90;;;;;;5031549;28;20126;-35
2023/04/23 11:19:03;;;;;;;9.00;2.28;;;16.90;99.90;;;;;;5031801;28;20040;-35
2023/04/23 11:22:07;;;;;;;3.05;1.35;;;17.00;99.90;;;;;;5036857;28;20148;-35
2023/04/23 11:24:41;;;;;;;3.45;1.13;;;17.20;99.90;;;;;;5031427;28;20053;-35
2023/04/23 11:27:12;;;;;;;6.07;1.08;;;17.40;99.90;;;;;;5027996;28;20061;-35
2023/04/23 11:29:40;;;;;;;4.32;0.80;;;17.60;99.90;;;;;;5031085;28;20060;-35
2023/04/23 11:32:09;;;;;;;4.20;0.82;;;17.80;99.90;;;;;;5034398;28;20072;-35
2023/04/23 11:34:46;;;;;;;5.32;0.82;;;18.00;99.90;;;;;;5028028;28;20048;-35
2023/04/23 11:37:14;;;;;;;2.85;0.47;;;18.10;99.90;;;;;;5026706;28;20140;-35
2023/04/23 11:39:41;;;;;;;4.20;0.60;;;18.30;99.90;;;;;;5028810;28;20053;-35
2023/04/23 11:42:10;;;;;;;4.05;0.52;;;18.40;99.90;;;;;;5024988;28;20426;-35
2023/04/23 11:44:43;;;;;;;4.55;0.73;;;18.40;99.90;;;;;;5029481;28;20499;-37
2023/04/23 11:47:11;;;;;;;3.20;0.50;;;18.20;99.90;;;;;;5028614;28;20140;-36
2023/04/23 11:49:42;;;;;;;4.15;0.68;;;18.20;99.90;;;;;;5026395;28;20060;-35
2023/04/23 11:52:08;;;;;;;4.95;0.57;;;18.10;99.90;;;;;;5028677;28;20048;-35
2023/04/23 11:54:34;;;;;;;3.65;0.63;;;18.00;99.90;;;;;;5031658;28;20056;-35
2023/04/23 11:57:03;;;;;;;2.90;0.55;;;17.80;99.90;;;;;;5030537;28;20061;-35
2023/04/23 11:59:29;;;;;;;2.88;0.50;;;17.70;99.90;;;;;;5028023;28;20045;-35
2023/04/23 12:01:57;;;;;;;4.10;0.75;;;17.70;99.90;;;;;;5029455;28;20119;-36
2023/04/23 12:04:28;;;;;;;3.03;0.52;;;17.70;99.90;;;;;;5029961;28;20060;-36
2023/04/23 12:06:55;;;;;;;2.97;0.60;;;17.80;99.90;;;;;;5025863;28;20114;-36
2023/04/23 12:09:23;;;;;;;3.53;1.08;;;17.90;99.90;;;;;;5025555;28;20282;-42
2023/04/23 12:11:52;;;;;;;1.85;0.47;;;17.90;99.90;;;;;;5029270;28;20503;-36
2023/04/23 12:14:22;;;;;;;4.43;0.73;;;18.00;99.90;;;;;;5026438;28;20049;-35
2023/04/23 12:16:51;;;;;;;1.52;0.60;;;18.10;99.90;;;;;;5024088;28;20053;-35
2023/04/23 12:19:24;;;;;;;1.58;0.70;;;18.30;99.90;;;;;;5028244;28;20056;-36
2023/04/23 12:21:55;;;;;;;4.43;0.60;;;18.30;99.90;;;;;;5022469;28;20064;-36
2023/04/23 12:24:25;;;;;;;3.65;0.70;;;18.40;99.90;;;;;;5027216;28;20056;-41
2023/04/23 12:26:57;;;;;;;2.20;0.30;;;18.50;99.90;;;;;;5029181;28;20293;-36
2023/04/23 12:29:24;;;;;;;2.88;0.50;;;18.60;99.90;;;;;;5031086;28;20592;-36
2023/04/23 12:31:51;;;;;;;2.45;0.50;;;18.60;99.90;;;;;;5026029;28;20168;-42
2023/04/23 12:34:18;;;;;;;2.90;0.47;;;18.70;99.90;;;;;;5030120;28;20088;-36
2023/04/23 12:36:49;;;;;;;7.20;0.60;;;18.70;99.90;;;;;;5033258;28;20056;-36
2023/04/23 12:39:31;;;;;;;4.45;0.60;;;18.90;99.90;;;;;;5029411;28;20061;-34